Ashland, Kentucky
Current Conditions -  °F | °C
As of 12:55 PM on Tuesday 21 Oct 2014 (Local Time) from KDWU Reporting Station
Overcast Overcast  
Wind Chill: 13°   Ceiling: 6000
Heat Index: 13°   Visibility: 10mi
Dew Point:   Wind: 9mph
Humidity: 63%   Direction: 330°NNW
Pressure: 29.98"   Gusts: NA
Location:  38.48°N, 82.64°W
Report Text: KDWU 211655Z AUTO 33008KT 10SM OVC060 13/06 A2998 RMK AO1
Loading
Personal Weather Stations






























Interactive Weather Map
Tropical Storm Tracking
New forecast layout! Learn more

10-Day Weather Forecast

Advertisements
Track Severe Weather on mobile